Terminal Aerodrome Forecast
Issued by NWS

Home | Current Version | Previous Version | Text Only | Print | Product List | Glossary On
Versions: 1 2 3 4 5 6 7 8 9 10 11 12 13 14
255
FTAK31 PAJN 262350
TAFAJN
TAF
PAJN 262350Z 2700/2724 08008KT P6SM VCSH SCT017 BKN035 OVC050
      TEMPO 2700/2704 2SM -SHRA BR FEW006 OVC017
     FM270900 VRB04KT P6SM VCSH FEW005 BKN025 OVC035
     FM271900 27005KT P6SM SCT025 BKN050=

USA.gov is the U.S. government's official web portal to all federal, state and local government web resources and services.